createdAt,value
2023-01-20T00:00:08.017Z,27.62
2023-01-20T00:01:08.010Z,26.42
2023-01-20T00:02:07.992Z,29.59
2023-01-20T00:03:07.991Z,25.60
2023-01-20T00:04:07.976Z,26.54
2023-01-20T00:05:07.968Z,27.44
2023-01-20T00:06:07.992Z,27.80
2023-01-20T06:52:51.331Z,108.30
2023-01-20T06:53:51.308Z,109.14
2023-01-20T06:55:53.017Z,108.77
2023-01-20T06:56:51.276Z,111.38
2023-01-20T06:58:51.261Z,114.57
2023-01-20T07:00:51.292Z,113.42
2023-01-20T07:01:51.393Z,112.57
2023-01-20T07:03:51.243Z,111.78
2023-01-20T07:05:51.204Z,108.81
2023-01-20T07:06:51.209Z,110.14
2023-01-20T07:07:51.183Z,108.27
2023-01-20T07:08:51.178Z,108.44
2023-01-20T07:10:51.152Z,106.47
2023-01-20T07:11:51.153Z,105.97
2023-01-20T07:12:51.151Z,105.51
2023-01-20T07:13:51.136Z,108.88
2023-01-20T07:14:51.134Z,104.17
2023-01-20T07:15:51.139Z,104.86
2023-01-20T07:16:51.281Z,102.79
2023-01-20T07:17:51.090Z,103.27
2023-01-20T07:18:51.080Z,104.68
2023-01-20T07:19:51.095Z,104.37
2023-01-20T07:20:51.073Z,104.30
2023-01-20T07:21:51.060Z,100.86
2023-01-20T07:22:51.057Z,104.00
2023-01-20T07:23:51.035Z,105.25
2023-01-20T07:24:51.342Z,103.41
2023-01-20T07:25:51.024Z,104.86
2023-01-20T07:26:51.016Z,102.76
2023-01-20T07:27:51.005Z,101.07
2023-01-20T07:28:50.996Z,100.56
2023-01-20T07:29:51.349Z,103.40
2023-01-20T07:30:51.011Z,101.91
2023-01-20T07:31:51.105Z,108.05
2023-01-20T07:32:50.959Z,104.38
2023-01-20T07:33:50.957Z,105.78
2023-01-20T07:34:51.341Z,105.82
2023-01-20T07:35:50.955Z,104.94
2023-01-20T07:36:50.919Z,105.56
2023-01-20T07:37:50.918Z,106.01
2023-01-20T07:38:50.912Z,106.12
2023-01-20T07:39:51.359Z,105.16
2023-01-20T07:40:50.897Z,106.75
2023-01-20T07:43:51.354Z,106.16
2023-01-20T07:49:51.076Z,105.04
2023-01-20T07:54:51.207Z,103.88
2023-01-20T08:11:51.532Z,112.39
2023-01-20T08:12:51.046Z,115.27
2023-01-20T08:23:50.882Z,119.16
2023-01-20T08:36:51.394Z,124.46
2023-01-20T08:38:50.879Z,125.33
2023-01-20T17:08:45.842Z,237.88
